Anton, Texas
Current Conditions -  °F | °C
As of 3:53 PM on Monday 22 Dec 2014 (Local Time) from KLBB Reporting Station
Broken Clouds Broken Clouds  
Wind Chill: 12°   Ceiling: 26000
Heat Index: 12°   Visibility: 10mi
Dew Point: -2°   Wind: 12mph
Humidity: 38%   Direction: 30°NNE
Pressure: 29.68"   Gusts: NA
Location:  33.81°N, 102.16°W
Report Text: KLBB 222153Z 03010KT 10SM FEW060 SCT200 BKN260 BKN300 12/M02 A2968 RMK AO2 SLP028 T01171022
Loading
Personal Weather Stations






























Interactive Weather Map New forecast layout! Learn more

10-Day Weather Forecast

Advertisements
Track Severe Weather on mobile